createdAt,value
2017-12-13T00:01:35.449Z,39.60
2017-12-13T00:04:04.008Z,39.41
2017-12-13T00:06:32.424Z,39.49
2017-12-13T00:09:00.700Z,39.72
2017-12-13T00:11:29.152Z,39.58
2017-12-13T00:13:57.531Z,39.47
2017-12-13T00:16:26.021Z,39.40
2017-12-13T00:18:54.444Z,39.47
2017-12-13T00:21:23.016Z,39.25
2017-12-13T00:23:51.391Z,39.25
2017-12-13T00:26:19.720Z,39.42
2017-12-13T00:28:48.090Z,39.29
2017-12-13T00:31:16.392Z,39.41
2017-12-13T00:33:44.663Z,39.58
2017-12-13T00:36:13.034Z,39.55
2017-12-13T00:38:41.287Z,39.52
2017-12-13T00:41:09.598Z,39.43
2017-12-13T00:43:37.884Z,39.40
2017-12-13T00:46:06.400Z,39.43
2017-12-13T00:48:34.819Z,39.52
2017-12-13T00:51:03.117Z,39.47
2017-12-13T00:53:31.576Z,39.49
2017-12-13T00:55:59.848Z,39.60
2017-12-13T00:58:28.137Z,39.66
2017-12-13T01:00:56.473Z,39.67
2017-12-13T01:03:24.858Z,39.61
2017-12-13T01:05:53.203Z,39.59
2017-12-13T01:08:21.644Z,39.57
2017-12-13T01:10:49.929Z,39.63
2017-12-13T01:13:18.184Z,39.61
2017-12-13T01:15:46.840Z,39.67
2017-12-13T01:18:15.068Z,39.72
2017-12-13T01:20:43.345Z,39.78
2017-12-13T01:23:11.585Z,39.75
2017-12-13T01:25:39.924Z,39.70
2017-12-13T01:28:08.168Z,39.67
2017-12-13T01:30:36.448Z,39.68
2017-12-13T01:33:05.006Z,39.64
2017-12-13T01:35:33.325Z,39.74
2017-12-13T01:38:01.608Z,39.77
2017-12-13T01:40:30.028Z,39.80
2017-12-13T01:42:58.674Z,39.84
2017-12-13T01:45:27.205Z,40.04
2017-12-13T01:47:55.682Z,39.91
2017-12-13T01:50:24.115Z,39.98
2017-12-13T01:52:52.443Z,40.00
2017-12-13T01:55:20.796Z,39.93
2017-12-13T01:57:50.100Z,39.97
2017-12-13T02:00:18.717Z,39.94
2017-12-13T02:02:47.402Z,39.97
2017-12-13T02:05:15.673Z,40.08
2017-12-13T02:07:44.529Z,40.10
2017-12-13T02:10:13.001Z,40.10
2017-12-13T02:12:41.261Z,40.23
2017-12-13T02:15:09.545Z,40.20
2017-12-13T02:17:37.840Z,40.20
2017-12-13T02:20:06.109Z,40.18
2017-12-13T02:22:34.396Z,40.13
2017-12-13T02:25:02.766Z,40.15
2017-12-13T02:27:31.132Z,40.20
2017-12-13T02:29:59.404Z,40.16
2017-12-13T02:32:27.695Z,40.18
2017-12-13T02:34:56.016Z,40.28
2017-12-13T02:37:24.398Z,40.29
2017-12-13T02:40:01.789Z,40.24
2017-12-13T02:42:30.173Z,40.20
2017-12-13T02:44:58.466Z,40.17
2017-12-13T02:47:26.775Z,40.24
2017-12-13T02:49:55.056Z,40.20
2017-12-13T02:52:23.548Z,40.23
2017-12-13T02:54:51.985Z,40.22
2017-12-13T02:57:20.277Z,40.24
2017-12-13T02:59:48.556Z,40.24
2017-12-13T03:02:17.039Z,40.19
2017-12-13T03:04:45.316Z,40.15
2017-12-13T03:07:13.805Z,40.08
2017-12-13T03:09:42.057Z,40.11
2017-12-13T03:12:10.452Z,40.14
2017-12-13T03:14:38.755Z,40.17
2017-12-13T03:17:07.150Z,40.18
2017-12-13T03:19:35.464Z,40.13
2017-12-13T03:22:03.775Z,40.17
2017-12-13T03:24:32.250Z,40.15
2017-12-13T03:27:00.577Z,40.23
2017-12-13T03:29:28.988Z,40.19
2017-12-13T03:31:57.518Z,40.13
2017-12-13T03:34:25.817Z,40.11
2017-12-13T03:36:54.197Z,40.01
2017-12-13T03:39:22.587Z,40.12
2017-12-13T03:41:50.914Z,40.18
2017-12-13T03:44:19.216Z,40.23
2017-12-13T03:46:47.680Z,40.05
2017-12-13T03:49:16.060Z,40.19
2017-12-13T03:51:44.416Z,40.04
2017-12-13T03:54:12.674Z,39.82
2017-12-13T03:56:40.969Z,39.63
2017-12-13T03:59:09.319Z,39.66
2017-12-13T04:01:37.673Z,39.64
2017-12-13T04:04:05.965Z,39.50
2017-12-13T04:06:34.259Z,39.38
2017-12-13T04:09:02.545Z,39.32
2017-12-13T04:11:30.824Z,39.34
2017-12-13T04:13:59.222Z,39.21
2017-12-13T04:16:27.489Z,39.20
2017-12-13T04:18:55.785Z,39.10
2017-12-13T04:21:24.210Z,39.08
2017-12-13T04:23:52.544Z,39.10
2017-12-13T04:26:20.830Z,39.10
2017-12-13T04:28:49.089Z,39.14
2017-12-13T04:31:17.417Z,39.12
2017-12-13T04:33:45.777Z,39.10
2017-12-13T04:36:14.109Z,39.07
2017-12-13T04:38:42.416Z,39.13
2017-12-13T04:41:10.914Z,39.14
2017-12-13T04:43:39.269Z,39.12
2017-12-13T04:46:07.551Z,39.19
2017-12-13T04:48:36.000Z,39.15
2017-12-13T04:51:04.373Z,39.16
2017-12-13T04:53:32.841Z,39.19
2017-12-13T04:56:01.203Z,39.24
2017-12-13T04:58:29.725Z,39.24
2017-12-13T05:03:54.137Z,39.28
2017-12-13T05:06:23.266Z,39.32
2017-12-13T05:08:51.996Z,39.39
2017-12-13T05:11:21.374Z,39.37
2017-12-13T05:13:50.724Z,39.43
2017-12-13T05:16:20.021Z,39.45
2017-12-13T05:18:48.949Z,39.43
2017-12-13T05:21:18.021Z,39.46
2017-12-13T05:23:46.789Z,39.53
2017-12-13T05:26:15.998Z,39.53
2017-12-13T05:28:45.096Z,39.52
2017-12-13T05:31:13.975Z,39.51
2017-12-13T05:33:43.279Z,39.55
2017-12-13T05:36:12.745Z,39.54
2017-12-13T05:38:41.891Z,39.58
2017-12-13T05:41:10.986Z,39.66
2017-12-13T05:43:40.148Z,39.67
2017-12-13T05:46:09.211Z,39.62
2017-12-13T05:48:38.263Z,39.71
2017-12-13T05:51:07.126Z,39.78
2017-12-13T05:53:36.018Z,39.80
2017-12-13T05:56:05.126Z,39.76
2017-12-13T05:58:34.083Z,39.72
2017-12-13T06:01:03.213Z,39.82
2017-12-13T06:03:32.701Z,39.84
2017-12-13T06:06:01.421Z,39.87
2017-12-13T06:08:30.261Z,40.04
2017-12-13T06:10:59.422Z,40.13
2017-12-13T06:13:28.562Z,40.17
2017-12-13T06:15:58.118Z,40.14
2017-12-13T06:18:26.925Z,40.10
2017-12-13T06:20:55.902Z,40.12
2017-12-13T06:23:25.001Z,40.16
2017-12-13T06:25:54.033Z,40.17
2017-12-13T06:28:23.390Z,40.12
2017-12-13T06:30:52.139Z,40.13
2017-12-13T06:33:21.150Z,40.13
2017-12-13T06:35:50.081Z,40.48
2017-12-13T06:38:19.552Z,40.68
2017-12-13T06:40:49.523Z,40.94
2017-12-13T06:43:18.570Z,41.16
2017-12-13T06:45:47.470Z,41.49
2017-12-13T06:48:16.659Z,40.81
2017-12-13T06:50:45.582Z,39.66
2017-12-13T06:53:14.534Z,38.71
2017-12-13T06:55:43.397Z,38.90
2017-12-13T06:58:12.728Z,39.28
2017-12-13T07:00:42.630Z,39.38
2017-12-13T07:03:11.735Z,39.85
2017-12-13T07:05:40.798Z,39.87
2017-12-13T07:08:09.926Z,39.77
2017-12-13T07:10:38.786Z,39.79
2017-12-13T07:13:08.232Z,39.63
2017-12-13T07:15:37.427Z,39.62
2017-12-13T07:18:06.129Z,39.65
2017-12-13T07:20:35.154Z,39.55
2017-12-13T07:23:04.167Z,39.49
2017-12-13T07:25:32.926Z,39.30
2017-12-13T07:28:02.030Z,38.13
2017-12-13T07:30:31.170Z,38.04
2017-12-13T07:33:00.058Z,38.21
2017-12-13T07:35:29.270Z,38.30
2017-12-13T07:37:58.465Z,38.38
2017-12-13T07:40:27.286Z,37.60
2017-12-13T07:42:56.136Z,37.97
2017-12-13T07:45:25.136Z,38.10
2017-12-13T07:47:54.038Z,38.20
2017-12-13T07:50:23.089Z,38.22
2017-12-13T07:52:51.933Z,38.30
2017-12-13T07:55:21.158Z,38.25
2017-12-13T07:57:50.204Z,38.26
2017-12-13T08:00:20.235Z,38.22
2017-12-13T08:02:49.505Z,38.25
2017-12-13T08:05:18.717Z,38.25
2017-12-13T08:07:47.808Z,38.03
2017-12-13T08:10:16.847Z,38.12
2017-12-13T08:12:46.527Z,37.95
2017-12-13T08:15:15.728Z,37.96
2017-12-13T08:17:44.733Z,37.85
2017-12-13T08:20:13.894Z,37.75
2017-12-13T08:22:43.354Z,37.70
2017-12-13T08:25:12.898Z,37.61
2017-12-13T08:27:41.999Z,37.55
2017-12-13T08:30:11.173Z,37.61
2017-12-13T08:32:40.080Z,36.18
2017-12-13T08:35:10.014Z,36.08
2017-12-13T08:37:39.392Z,36.75
2017-12-13T08:40:08.645Z,37.03
2017-12-13T08:42:38.651Z,37.24
2017-12-13T08:45:07.734Z,37.33
2017-12-13T08:47:37.598Z,37.46
2017-12-13T08:50:06.931Z,37.50
2017-12-13T08:52:36.629Z,36.64
2017-12-13T08:55:05.526Z,36.41
2017-12-13T08:57:34.633Z,36.46
2017-12-13T09:00:03.862Z,36.90
2017-12-13T09:02:32.757Z,37.36
2017-12-13T09:05:01.603Z,37.55
2017-12-13T09:07:30.451Z,37.80
2017-12-13T09:09:59.495Z,37.84
2017-12-13T09:12:28.342Z,38.16
2017-12-13T09:14:57.211Z,38.32
2017-12-13T09:17:26.159Z,38.60
2017-12-13T09:19:55.012Z,38.77
2017-12-13T09:22:24.147Z,38.86
2017-12-13T09:24:53.118Z,39.05
2017-12-13T09:27:22.471Z,39.17
2017-12-13T09:29:51.386Z,39.37
2017-12-13T09:32:20.602Z,39.63
2017-12-13T09:34:49.601Z,39.58
2017-12-13T09:37:18.506Z,39.80
2017-12-13T09:39:47.794Z,39.65
2017-12-13T09:42:16.843Z,39.76
2017-12-13T09:44:46.609Z,40.03
2017-12-13T09:47:15.748Z,40.19
2017-12-13T09:49:44.927Z,40.32
2017-12-13T09:52:13.638Z,40.39
2017-12-13T09:54:42.994Z,40.48
2017-12-13T09:57:12.291Z,40.69
2017-12-13T09:59:42.598Z,40.67
2017-12-13T10:02:11.450Z,40.07
2017-12-13T10:04:40.490Z,39.94
2017-12-13T10:07:09.734Z,40.10
2017-12-13T10:09:38.965Z,40.23
2017-12-13T10:12:07.870Z,40.21
2017-12-13T10:14:36.798Z,40.31
2017-12-13T10:17:05.754Z,40.57
2017-12-13T10:19:35.082Z,40.93
2017-12-13T10:22:04.332Z,40.94
2017-12-13T10:24:33.182Z,40.90
2017-12-13T10:27:02.577Z,40.99
2017-12-13T10:29:31.298Z,41.02
2017-12-13T10:32:00.562Z,41.18
2017-12-13T10:34:29.428Z,41.23
2017-12-13T10:36:58.486Z,41.27
2017-12-13T10:39:27.429Z,41.09
2017-12-13T10:41:57.722Z,41.10
2017-12-13T10:44:30.034Z,41.03
2017-12-13T10:47:01.161Z,41.05
2017-12-13T10:49:32.887Z,41.11
2017-12-13T10:52:04.146Z,41.07
2017-12-13T10:54:33.301Z,40.99
2017-12-13T10:57:02.495Z,41.04
2017-12-13T10:59:31.612Z,41.02
2017-12-13T11:02:00.962Z,41.04
2017-12-13T11:04:30.985Z,40.98
2017-12-13T11:07:00.114Z,40.96
2017-12-13T11:09:29.471Z,40.96
2017-12-13T11:11:58.775Z,40.94
2017-12-13T11:14:28.042Z,40.90
2017-12-13T11:17:02.330Z,40.93
2017-12-13T11:19:32.238Z,40.86
2017-12-13T11:22:01.310Z,40.81
2017-12-13T11:24:30.043Z,40.87
2017-12-13T11:26:59.706Z,40.80
2017-12-13T11:29:28.783Z,40.81
2017-12-13T11:31:58.269Z,40.73
2017-12-13T11:34:27.126Z,40.72
2017-12-13T11:37:03.677Z,40.67
2017-12-13T11:39:32.958Z,40.64
2017-12-13T11:42:02.331Z,40.64
2017-12-13T11:44:31.379Z,40.54
2017-12-13T11:47:00.582Z,40.55
2017-12-13T11:49:29.666Z,40.56
2017-12-13T11:51:58.832Z,40.46
2017-12-13T11:54:32.843Z,40.44
2017-12-13T11:57:01.969Z,40.46
2017-12-13T11:59:31.037Z,40.45
2017-12-13T12:02:00.494Z,40.40
2017-12-13T12:04:29.835Z,40.39
2017-12-13T12:06:59.784Z,40.45
2017-12-13T12:09:28.542Z,40.51
2017-12-13T12:11:57.810Z,40.46
2017-12-13T12:14:26.834Z,40.44
2017-12-13T12:16:56.139Z,40.41
2017-12-13T12:19:25.241Z,40.46
2017-12-13T12:21:54.418Z,40.61
2017-12-13T12:24:23.500Z,40.59
2017-12-13T12:26:52.473Z,40.44
2017-12-13T12:29:21.441Z,40.53
2017-12-13T12:31:51.127Z,40.51
2017-12-13T12:34:20.372Z,40.73
2017-12-13T12:36:49.603Z,40.72
2017-12-13T12:39:19.303Z,40.74
2017-12-13T12:41:49.066Z,40.57
2017-12-13T12:44:18.151Z,40.46
2017-12-13T12:46:47.545Z,40.47
2017-12-13T12:49:16.275Z,40.50
2017-12-13T12:51:45.278Z,40.64
2017-12-13T12:54:14.318Z,40.48
2017-12-13T12:56:43.406Z,40.19
2017-12-13T12:59:12.426Z,39.87
2017-12-13T13:01:42.993Z,39.92
2017-12-13T13:04:21.632Z,40.12
2017-12-13T13:06:51.966Z,40.60
2017-12-13T13:09:23.910Z,40.81
2017-12-13T13:11:52.790Z,41.02
2017-12-13T13:14:21.647Z,41.08
2017-12-13T13:16:51.137Z,41.06
2017-12-13T13:19:20.167Z,41.18
2017-12-13T13:21:48.998Z,41.08
2017-12-13T13:24:18.129Z,40.94
2017-12-13T13:26:47.010Z,40.85
2017-12-13T13:29:15.974Z,40.75
2017-12-13T13:31:44.819Z,41.25
2017-12-13T13:34:14.056Z,40.11
2017-12-13T13:36:43.156Z,40.42
2017-12-13T13:39:12.530Z,40.42
2017-12-13T13:41:41.990Z,41.06
2017-12-13T13:44:10.975Z,41.23
2017-12-13T13:46:40.163Z,41.24
2017-12-13T13:49:09.153Z,41.21
2017-12-13T13:51:38.341Z,41.22
2017-12-13T13:54:07.747Z,41.25
2017-12-13T13:56:36.690Z,41.33
2017-12-13T13:59:05.639Z,41.25
2017-12-13T14:01:36.050Z,41.24
2017-12-13T14:04:05.358Z,41.22
2017-12-13T14:06:34.759Z,41.30
2017-12-13T14:09:04.309Z,41.26
2017-12-13T14:11:33.317Z,41.32
2017-12-13T14:14:02.196Z,41.28
2017-12-13T14:16:31.763Z,41.35
2017-12-13T14:19:00.451Z,41.33
2017-12-13T14:21:29.670Z,41.28
2017-12-13T14:23:59.055Z,41.33
2017-12-13T14:26:28.619Z,41.31
2017-12-13T14:28:57.864Z,41.39
2017-12-13T14:31:26.847Z,41.33
2017-12-13T14:33:56.467Z,41.28
2017-12-13T14:36:26.161Z,41.19
2017-12-13T14:38:55.022Z,41.08
2017-12-13T14:41:24.152Z,41.06
2017-12-13T14:43:52.968Z,41.17
2017-12-13T14:46:21.930Z,41.21
2017-12-13T14:48:50.901Z,41.12
2017-12-13T14:51:20.115Z,41.05
2017-12-13T14:53:49.130Z,41.01
2017-12-13T14:56:18.312Z,40.97
2017-12-13T14:58:47.453Z,40.97
2017-12-13T15:01:16.566Z,40.95
2017-12-13T15:03:45.454Z,40.94
2017-12-13T15:06:14.897Z,40.98
2017-12-13T15:08:43.992Z,41.02
2017-12-13T15:11:13.041Z,40.99
2017-12-13T15:13:42.019Z,40.98
2017-12-13T15:16:11.117Z,41.03
2017-12-13T15:18:39.961Z,41.11
2017-12-13T15:21:08.761Z,41.09
2017-12-13T15:23:37.884Z,41.04
2017-12-13T15:26:07.244Z,41.01
2017-12-13T15:28:36.340Z,41.01
2017-12-13T15:31:05.484Z,40.97
2017-12-13T15:33:34.350Z,40.94
2017-12-13T15:36:03.234Z,40.88
2017-12-13T15:38:32.522Z,40.78
2017-12-13T15:41:01.387Z,40.77
2017-12-13T15:43:30.789Z,40.79
2017-12-13T15:45:59.851Z,40.78
2017-12-13T15:48:29.598Z,40.76
2017-12-13T15:50:58.601Z,40.75
2017-12-13T15:53:27.705Z,40.73
2017-12-13T15:55:56.918Z,40.63
2017-12-13T15:58:26.159Z,40.52
2017-12-13T16:00:54.971Z,40.51
2017-12-13T16:03:25.854Z,40.51
2017-12-13T16:05:54.557Z,40.53
2017-12-13T16:08:23.562Z,40.56
2017-12-13T16:10:52.566Z,40.58
2017-12-13T16:13:22.134Z,40.54
2017-12-13T16:15:51.195Z,40.69
2017-12-13T16:18:20.616Z,40.63
2017-12-13T16:20:49.583Z,40.64
2017-12-13T16:23:18.895Z,40.63
2017-12-13T16:25:47.751Z,40.65
2017-12-13T16:28:16.676Z,40.63
2017-12-13T16:30:45.820Z,40.69
2017-12-13T16:33:14.586Z,40.71
2017-12-13T16:35:43.559Z,40.69
2017-12-13T16:38:12.618Z,40.72
2017-12-13T16:40:41.558Z,40.73
2017-12-13T16:43:10.838Z,40.75
2017-12-13T16:45:39.659Z,40.75
2017-12-13T16:48:08.940Z,40.71
2017-12-13T16:50:38.009Z,40.79
2017-12-13T16:53:07.422Z,40.76
2017-12-13T16:55:36.509Z,40.78
2017-12-13T16:58:05.614Z,40.79
2017-12-13T17:00:34.700Z,40.85
2017-12-13T17:03:03.889Z,40.85
2017-12-13T17:05:32.634Z,40.85
2017-12-13T17:08:01.996Z,40.81
2017-12-13T17:10:31.499Z,40.84
2017-12-13T17:13:00.346Z,40.80
2017-12-13T17:15:29.743Z,40.85
2017-12-13T17:17:58.529Z,40.77
2017-12-13T17:20:27.634Z,40.78
2017-12-13T17:22:57.193Z,40.76
2017-12-13T17:25:26.375Z,40.79
2017-12-13T17:27:55.586Z,40.74
2017-12-13T17:30:24.510Z,40.72
2017-12-13T17:32:53.486Z,40.75
2017-12-13T17:35:22.870Z,40.78
2017-12-13T17:37:51.754Z,40.81
2017-12-13T17:40:20.670Z,40.84
2017-12-13T17:42:49.721Z,40.85
2017-12-13T17:45:19.103Z,40.88
2017-12-13T17:47:47.919Z,40.93
2017-12-13T17:50:17.181Z,40.92
2017-12-13T17:52:46.160Z,40.93
2017-12-13T17:55:15.200Z,41.45
2017-12-13T17:57:44.388Z,41.78
2017-12-13T18:00:14.020Z,41.67
2017-12-13T18:02:45.176Z,41.68
2017-12-13T18:05:14.327Z,41.50
2017-12-13T18:07:43.396Z,41.47
2017-12-13T18:10:12.247Z,41.61
2017-12-13T18:12:41.079Z,41.62
2017-12-13T18:15:09.995Z,41.54
2017-12-13T18:17:39.202Z,41.44
2017-12-13T18:20:08.825Z,41.28
2017-12-13T18:22:38.332Z,41.13
2017-12-13T18:25:08.454Z,40.94
2017-12-13T18:27:37.505Z,41.04
2017-12-13T18:30:06.626Z,40.98
2017-12-13T18:32:35.779Z,40.95
2017-12-13T18:35:04.830Z,40.94
2017-12-13T18:37:34.742Z,40.86
2017-12-13T18:40:04.011Z,40.83
2017-12-13T18:42:33.062Z,40.90
2017-12-13T18:45:01.775Z,40.89
2017-12-13T18:47:31.744Z,40.88
2017-12-13T18:50:00.738Z,40.82
2017-12-13T18:52:29.766Z,40.65
2017-12-13T18:54:58.986Z,40.71
2017-12-13T18:57:28.938Z,40.67
2017-12-13T18:59:57.997Z,40.54
2017-12-13T19:02:27.557Z,40.61
2017-12-13T19:04:57.645Z,40.53
2017-12-13T19:07:27.596Z,40.62
2017-12-13T19:09:56.469Z,40.61
2017-12-13T19:12:26.586Z,40.62
2017-12-13T19:14:56.061Z,40.63
2017-12-13T19:17:25.169Z,40.66
2017-12-13T19:19:53.870Z,40.53
2017-12-13T19:22:22.718Z,40.58
2017-12-13T19:24:51.839Z,40.63
2017-12-13T19:27:21.153Z,40.53
2017-12-13T19:29:50.141Z,40.55
2017-12-13T19:32:19.978Z,40.66
2017-12-13T19:34:48.860Z,40.74
2017-12-13T19:37:17.975Z,40.68
2017-12-13T19:39:46.883Z,40.76
2017-12-13T19:42:15.890Z,40.78
2017-12-13T19:44:45.559Z,40.72
2017-12-13T19:47:14.922Z,40.77
2017-12-13T19:49:44.216Z,40.71
2017-12-13T19:52:13.800Z,40.87
2017-12-13T19:54:42.875Z,40.97
2017-12-13T19:57:11.761Z,40.96
2017-12-13T19:59:40.790Z,40.83
2017-12-13T20:02:12.096Z,40.84
2017-12-13T20:04:41.454Z,40.97
2017-12-13T20:07:10.150Z,41.02
2017-12-13T20:09:38.975Z,41.04
2017-12-13T20:12:08.261Z,41.14
2017-12-13T20:14:37.652Z,41.21
2017-12-13T20:17:07.160Z,41.27
2017-12-13T20:19:36.249Z,41.28
2017-12-13T20:22:04.934Z,41.04
2017-12-13T20:24:34.022Z,40.96
2017-12-13T20:27:03.485Z,40.80
2017-12-13T20:29:32.302Z,40.67
2017-12-13T20:32:01.502Z,40.22
2017-12-13T20:34:30.291Z,39.92
2017-12-13T20:36:59.271Z,39.75
2017-12-13T20:39:28.359Z,39.68
2017-12-13T20:41:57.276Z,39.70
2017-12-13T20:44:26.386Z,39.65
2017-12-13T20:46:55.323Z,39.53
2017-12-13T20:49:24.327Z,39.43
2017-12-13T20:51:53.251Z,39.39
2017-12-13T20:54:22.152Z,39.21
2017-12-13T20:56:51.498Z,39.03
2017-12-13T20:59:20.254Z,38.88
2017-12-13T21:01:49.232Z,38.76
2017-12-13T21:04:19.352Z,38.63
2017-12-13T21:06:49.155Z,38.46
2017-12-13T21:09:18.560Z,38.40
2017-12-13T21:11:48.030Z,38.23
2017-12-13T21:14:17.139Z,38.20
2017-12-13T21:16:45.990Z,38.12
2017-12-13T21:19:15.287Z,37.82
2017-12-13T21:21:44.262Z,37.78
2017-12-13T21:24:13.316Z,37.72
2017-12-13T21:26:42.710Z,37.55
2017-12-13T21:29:11.498Z,37.66
2017-12-13T21:31:40.863Z,37.53
2017-12-13T21:34:14.015Z,37.53
2017-12-13T21:36:43.399Z,37.39
2017-12-13T21:39:12.616Z,37.33
2017-12-13T21:41:41.454Z,37.36
2017-12-13T21:44:10.579Z,37.41
2017-12-13T21:46:40.261Z,37.44
2017-12-13T21:49:09.236Z,37.20
2017-12-13T21:51:38.176Z,37.56
2017-12-13T21:54:07.170Z,37.79
2017-12-13T21:56:36.292Z,37.79
2017-12-13T21:59:05.078Z,38.02
2017-12-13T22:01:34.275Z,38.00
2017-12-13T22:04:03.439Z,38.13
2017-12-13T22:06:32.628Z,37.94
2017-12-13T22:09:01.625Z,37.99
2017-12-13T22:11:30.434Z,37.84
2017-12-13T22:13:59.550Z,38.13
2017-12-13T22:16:28.631Z,38.34
2017-12-13T22:18:57.944Z,38.15
2017-12-13T22:21:26.754Z,37.97
2017-12-13T22:23:55.576Z,38.22
2017-12-13T22:26:24.390Z,38.12
2017-12-13T22:28:53.282Z,38.52
2017-12-13T22:31:22.601Z,38.30
2017-12-13T22:33:53.383Z,38.21
2017-12-13T22:36:22.602Z,38.30
2017-12-13T22:38:51.382Z,38.19
2017-12-13T22:41:20.417Z,38.21
2017-12-13T22:43:49.178Z,38.38
2017-12-13T22:46:18.355Z,38.61
2017-12-13T22:48:47.295Z,38.83
2017-12-13T22:51:16.872Z,39.38
2017-12-13T22:53:45.690Z,39.62
2017-12-13T22:56:14.520Z,39.85
2017-12-13T22:58:43.523Z,39.82
2017-12-13T23:01:12.560Z,39.68
2017-12-13T23:03:41.659Z,39.70
2017-12-13T23:06:10.962Z,39.64
2017-12-13T23:08:39.660Z,39.68
2017-12-13T23:11:08.940Z,40.07
2017-12-13T23:13:38.055Z,40.03
2017-12-13T23:16:06.938Z,40.18
2017-12-13T23:18:35.740Z,39.92
2017-12-13T23:21:04.862Z,39.83
2017-12-13T23:23:34.005Z,40.09
2017-12-13T23:26:03.029Z,40.10
2017-12-13T23:28:32.406Z,40.03
2017-12-13T23:31:01.496Z,40.14
2017-12-13T23:33:30.392Z,40.31
2017-12-13T23:35:59.106Z,40.25
2017-12-13T23:38:27.885Z,40.10
2017-12-13T23:40:56.805Z,40.21
2017-12-13T23:43:25.819Z,40.05
2017-12-13T23:45:54.599Z,40.12
2017-12-13T23:48:23.736Z,40.11
2017-12-13T23:50:52.615Z,40.07
2017-12-13T23:53:21.456Z,40.02
2017-12-13T23:55:50.466Z,40.04
2017-12-13T23:58:19.215Z,39.95
